Terminal Aerodrome Forecast
Issued by NWS Charleston, WV

Current Version | Previous Version | Text Only | Print | Product List | Glossary Off
Versions: 1 2 3 4 5 6 7 8 9 10 11 12 13 14 15 16 17 18 19 20 21

000
FTUS41 KRLX 271100
TAFEKN
TAF
KEKN 271133Z 2712/2812 32005KT 5SM -SN BKN020
      TEMPO 2712/2713 6SM -SN
     FM271300 32005KT P6SM BKN020
     FM272300 00000KT P6SM SCT030=

USA.gov is the U.S. government's official web portal to all federal, state and local government web resources and services.